Time;durP1;ratioP1;P1;durP2;ratioP2;P2;SDS_P1;SDS_P2;PMS_P1;PMS_P2;Temp;Humidity;BMP_temperature;BMP_pressure;BME280_temperature;BME280_humidity;BME280_pressure;Samples;Min_cycle;Max_cycle;Signal;HPM_P1;HPM_P2
2021/03/27 00:01:43;;;;;;;8.53;4.60;;;8.80;1.00;;;;;;5057151;28;20432;-76
2021/03/27 00:04:40;;;;;;;9.40;3.50;;;8.80;1.00;;;;;;5056686;28;20849;-76
2021/03/27 00:07:14;;;;;;;6.60;4.20;;;8.80;1.00;;;;;;5074424;28;20421;-75
2021/03/27 00:09:40;;;;;;;7.23;4.10;;;;;;;;;;5076998;28;20401;-75
2021/03/27 00:12:36;;;;;;;10.07;4.20;;;8.70;1.00;;;;;;5062065;28;20466;-75
2021/03/27 00:15:31;;;;;;;4.70;3.70;;;8.60;1.00;;;;;;5056495;28;20508;-75
2021/03/27 00:18:17;;;;;;;6.60;3.67;;;8.70;1.00;;;;;;5054175;28;20432;-75
2021/03/27 00:21:37;;;;;;;8.00;4.03;;;8.70;1.00;;;;;;5076866;28;20484;-75
2021/03/27 00:24:17;;;;;;;7.70;4.63;;;8.70;1.00;;;;;;5076256;28;20419;-76
2021/03/27 00:27:24;;;;;;;6.77;4.17;;;8.70;1.00;;;;;;5062250;28;20410;-76
2021/03/27 00:30:14;;;;;;;7.50;4.20;;;8.90;1.00;;;;;;5051385;28;20430;-76
2021/03/27 00:33:07;;;;;;;10.13;5.57;;;9.10;1.00;;;;;;5052789;28;20473;-76
2021/03/27 00:36:01;;;;;;;10.97;5.37;;;9.20;1.00;;;;;;5054135;28;20444;-76
2021/03/27 00:38:34;;;;;;;13.30;5.57;;;9.30;1.00;;;;;;5053920;28;20410;-75
2021/03/27 00:41:14;;;;;;;9.33;4.80;;;9.40;1.00;;;;;;5053951;28;20501;-75
2021/03/27 00:43:59;;;;;;;6.30;4.43;;;9.40;1.00;;;;;;5053213;28;20607;-75
2021/03/27 00:46:39;;;;;;;10.63;4.60;;;9.50;1.00;;;;;;5053273;28;20421;-75
2021/03/27 00:49:10;;;;;;;9.60;5.00;;;9.60;1.00;;;;;;5053746;28;20940;-75
2021/03/27 00:51:53;;;;;;;11.50;4.83;;;9.70;1.00;;;;;;5054133;28;20411;-75
2021/03/27 00:54:45;;;;;;;10.00;4.53;;;9.80;1.00;;;;;;5054096;28;20469;-75
2021/03/27 00:57:39;;;;;;;6.33;4.57;;;9.90;1.00;;;;;;5051414;28;20403;-75
2021/03/27 01:00:37;;;;;;;6.90;3.93;;;9.90;1.00;;;;;;5040731;28;20429;-75
2021/03/27 01:03:41;;;;;;;8.33;4.60;;;10.10;1.00;;;;;;5055562;28;20444;-75
2021/03/27 01:06:18;;;;;;;10.83;5.30;;;10.20;1.00;;;;;;5003469;28;20440;-75
2021/03/27 01:09:37;;;;;;;11.87;5.40;;;10.30;1.00;;;;;;5014917;28;20411;-76
2021/03/27 01:12:11;;;;;;;10.63;5.00;;;10.40;1.00;;;;;;4994313;28;20513;-76
2021/03/27 01:14:45;;;;;;;7.93;4.43;;;10.40;1.00;;;;;;5010387;28;20486;-76
2021/03/27 01:17:34;;;;;;;8.70;5.03;;;10.60;1.00;;;;;;5013566;28;20400;-76
2021/03/27 01:20:20;;;;;;;10.97;4.83;;;10.60;1.00;;;;;;5013628;28;20400;-76
2021/03/27 01:22:51;;;;;;;4.97;3.97;;;10.90;1.00;;;;;;5013597;28;20408;-75
2021/03/27 01:25:38;;;;;;;13.03;4.97;;;11.00;1.00;;;;;;5013746;28;20855;-75
2021/03/27 01:28:55;;;;;;;11.90;5.30;;;11.00;1.00;;;;;;5013267;28;20408;-75
2021/03/27 01:31:34;;;;;;;10.13;4.97;;;11.20;1.00;;;;;;5007243;28;20413;-76
2021/03/27 01:34:03;;;;;;;7.00;4.60;;;11.30;1.00;;;;;;5013130;28;20567;-75
2021/03/27 01:40:08;;;;;;;12.07;5.50;;;11.40;1.00;;;;;;5018405;28;20397;-76
2021/03/27 01:43:11;;;;;;;9.30;4.90;;;11.50;1.00;;;;;;5055132;28;20417;-76
2021/03/27 01:46:07;;;;;;;8.03;5.20;;;11.60;1.00;;;;;;5064915;28;21353;-76
2021/03/27 01:52:16;;;;;;;8.87;5.27;;;11.60;1.00;;;;;;5075012;28;20393;-76
2021/03/27 01:55:19;;;;;;;11.53;5.63;;;11.60;1.00;;;;;;5074682;28;20464;-76
2021/03/27 01:57:48;;;;;;;12.97;5.60;;;;;;;;;;5075099;28;20377;-76
2021/03/27 02:01:07;;;;;;;11.10;5.67;;;11.70;1.00;;;;;;5057125;28;20398;-76
2021/03/27 02:03:43;;;;;;;6.70;4.43;;;11.70;1.00;;;;;;5054268;28;20382;-76
2021/03/27 02:06:35;;;;;;;11.80;5.70;;;11.70;1.00;;;;;;5064246;28;20428;-76
2021/03/27 02:09:24;;;;;;;11.03;5.00;;;11.70;1.00;;;;;;5073872;28;20416;-76
2021/03/27 02:12:28;;;;;;;9.47;4.93;;;11.80;1.00;;;;;;5074708;28;20393;-76
2021/03/27 02:15:09;;;;;;;9.53;4.67;;;11.80;1.00;;;;;;5073643;28;20483;-76
2021/03/27 02:17:37;;;;;;;12.60;4.73;;;11.80;1.00;;;;;;5059451;28;20805;-76
2021/03/27 02:20:35;;;;;;;8.10;3.30;;;11.80;1.00;;;;;;5054299;28;20440;-76
2021/03/27 02:23:31;;;;;;;8.23;4.00;;;11.70;1.00;;;;;;5054377;28;20386;-75
2021/03/27 02:26:19;;;;;;;6.13;3.97;;;11.80;1.00;;;;;;5054230;28;20402;-76
2021/03/27 02:28:58;;;;;;;5.20;3.27;;;11.70;1.00;;;;;;5053953;28;20390;-76
2021/03/27 02:31:35;;;;;;;12.73;4.30;;;11.60;1.00;;;;;;5059406;28;20904;-76
2021/03/27 02:34:10;;;;;;;4.33;3.20;;;11.70;1.00;;;;;;5061876;28;20470;-76
2021/03/27 02:36:44;;;;;;;6.00;3.67;;;11.70;1.00;;;;;;5054458;28;20421;-76
2021/03/27 02:39:22;;;;;;;4.23;2.53;;;11.70;1.00;;;;;;5054434;28;20452;-75
2021/03/27 02:42:10;;;;;;;5.37;3.30;;;11.70;1.00;;;;;;5070648;28;20432;-75
2021/03/27 02:44:46;;;;;;;8.63;3.33;;;11.80;1.00;;;;;;5074202;28;20397;-75
2021/03/27 02:47:31;;;;;;;6.97;3.60;;;11.80;1.00;;;;;;5074027;28;20413;-76
2021/03/27 02:50:08;;;;;;;4.37;3.13;;;;;;;;;;5059498;28;20418;-75
2021/03/27 02:52:45;;;;;;;5.03;3.23;;;11.90;1.00;;;;;;5053958;28;20491;-75
2021/03/27 02:55:18;;;;;;;4.50;2.60;;;;;;;;;;5052636;28;20429;-75
2021/03/27 02:58:11;;;;;;;4.03;2.60;;;11.90;1.00;;;;;;5053674;28;20871;-75
2021/03/27 03:00:59;;;;;;;9.80;3.07;;;11.90;1.00;;;;;;5053872;28;20394;-75
2021/03/27 03:03:47;;;;;;;8.87;1.90;;;12.00;1.00;;;;;;5053611;28;20457;-75
2021/03/27 03:06:34;;;;;;;26.83;2.70;;;12.00;1.00;;;;;;5080000;28;20459;-75
2021/03/27 03:09:10;;;;;;;2.90;2.20;;;11.90;1.00;;;;;;5094375;28;20396;-77
2021/03/27 03:12:25;;;;;;;5.87;2.37;;;11.90;1.00;;;;;;5093527;28;20388;-76
2021/03/27 03:15:39;;;;;;;6.83;2.50;;;11.80;1.00;;;;;;5057339;28;20426;-76
2021/03/27 03:18:25;;;;;;;8.20;2.93;;;11.70;1.00;;;;;;5051620;28;20509;-76
2021/03/27 03:21:19;;;;;;;3.73;2.67;;;11.60;1.00;;;;;;5045261;28;20450;-76
2021/03/27 03:24:14;;;;;;;8.03;2.30;;;11.60;1.00;;;;;;5035687;28;20445;-75
2021/03/27 03:27:15;;;;;;;3.83;1.80;;;11.40;1.00;;;;;;5035294;28;20396;-76
2021/03/27 03:29:48;;;;;;;4.50;2.63;;;;;;;;;;5041968;28;20421;-75
2021/03/27 03:33:01;;;;;;;15.80;3.90;;;11.10;1.00;;;;;;5035132;28;20438;-75
2021/03/27 03:35:41;;;;;;;3.17;2.40;;;10.90;1.00;;;;;;5050244;28;20442;-75
2021/03/27 03:38:28;;;;;;;3.13;1.97;;;10.80;1.00;;;;;;5035705;28;20402;-75
2021/03/27 03:41:08;;;;;;;2.83;1.70;;;;;;;;;;5035463;28;20411;-75
2021/03/27 03:43:46;;;;;;;2.57;1.33;;;10.60;1.00;;;;;;5035502;28;20411;-76
2021/03/27 03:46:32;;;;;;;0.60;0.60;;;10.50;1.00;;;;;;5040981;28;20449;-76
2021/03/27 03:49:28;;;;;;;0.70;0.70;;;10.20;1.00;;;;;;5055145;28;20946;-75
2021/03/27 03:51:54;;;;;;;0.40;0.40;;;10.00;1.00;;;;;;5054998;28;20417;-75
2021/03/27 03:54:50;;;;;;;0.53;0.53;;;9.90;1.00;;;;;;5056253;28;20466;-75
2021/03/27 03:57:31;;;;;;;0.40;0.40;;;9.80;1.00;;;;;;5060234;28;20156;-75
2021/03/27 04:00:18;;;;;;;0.50;0.50;;;9.70;1.00;;;;;;5058413;28;20420;-75
2021/03/27 04:03:07;;;;;;;0.40;0.40;;;9.60;1.00;;;;;;5077033;28;20394;-75
2021/03/27 04:05:55;;;;;;;0.93;0.50;;;9.50;1.00;;;;;;5076917;28;20408;-75
2021/03/27 04:08:51;;;;;;;0.60;0.50;;;9.50;1.00;;;;;;5057388;28;20885;-76
2021/03/27 04:11:41;;;;;;;0.40;0.40;;;9.40;1.00;;;;;;5056890;28;20482;-76
2021/03/27 04:14:35;;;;;;;0.40;0.40;;;9.30;1.00;;;;;;5058016;28;20543;-77
2021/03/27 04:17:08;;;;;;;0.50;0.40;;;9.20;1.00;;;;;;5057017;28;20426;-77
2021/03/27 04:20:02;;;;;;;0.40;0.40;;;9.20;1.00;;;;;;5056782;28;20394;-76
2021/03/27 04:22:45;;;;;;;1.13;0.50;;;9.10;1.00;;;;;;5056513;28;20439;-77
2021/03/27 04:25:28;;;;;;;0.50;0.40;;;9.10;1.00;;;;;;5056691;28;20391;-75
2021/03/27 04:28:45;;;;;;;0.40;0.40;;;9.10;1.00;;;;;;5061627;28;20408;-75
2021/03/27 04:31:35;;;;;;;0.43;0.30;;;9.00;1.00;;;;;;5033349;28;20810;-75
2021/03/27 04:34:12;;;;;;;1.33;0.60;;;8.90;1.00;;;;;;5030983;28;20474;-75
2021/03/27 04:36:52;;;;;;;0.60;0.57;;;8.90;1.00;;;;;;5033985;28;20423;-75
2021/03/27 04:39:48;;;;;;;0.40;0.40;;;8.90;1.00;;;;;;5033821;28;20425;-77
2021/03/27 04:42:38;;;;;;;0.40;0.40;;;8.70;1.00;;;;;;5034494;28;20399;-76
2021/03/27 04:45:37;;;;;;;1.90;0.60;;;8.60;1.00;;;;;;5031775;28;20498;-76
2021/03/27 04:48:37;;;;;;;0.40;0.40;;;8.60;1.00;;;;;;5029231;28;20424;-76
2021/03/27 04:51:25;;;;;;;0.53;0.40;;;8.40;1.00;;;;;;5014403;28;20392;-76
2021/03/27 04:54:10;;;;;;;0.50;0.50;;;8.40;1.00;;;;;;5015118;28;21007;-75
2021/03/27 04:56:54;;;;;;;0.40;0.40;;;8.30;1.00;;;;;;5026030;28;20442;-75
2021/03/27 04:59:47;;;;;;;0.40;0.40;;;8.10;1.00;;;;;;5033828;28;20757;-75
2021/03/27 05:02:53;;;;;;;0.50;0.40;;;8.00;1.00;;;;;;5034028;28;20387;-75
2021/03/27 05:05:38;;;;;;;0.43;0.43;;;7.90;1.00;;;;;;4954412;29;20934;-75
2021/03/27 05:08:37;;;;;;;0.50;0.50;;;7.90;1.00;;;;;;4975095;28;20398;-75
2021/03/27 05:11:31;;;;;;;0.40;0.40;;;7.80;1.00;;;;;;4974963;28;20444;-75
2021/03/27 05:14:27;;;;;;;0.40;0.40;;;7.70;1.00;;;;;;4974527;28;20458;-75
2021/03/27 05:17:17;;;;;;;0.40;0.40;;;7.70;1.00;;;;;;4974793;28;20417;-75
2021/03/27 05:20:21;;;;;;;0.40;0.40;;;7.70;1.00;;;;;;4974732;28;20453;-75
2021/03/27 05:22:55;;;;;;;0.70;0.40;;;7.60;1.00;;;;;;4938439;28;20518;-75
2021/03/27 05:25:24;;;;;;;5.63;0.70;;;7.60;1.00;;;;;;4955415;29;20574;-75
2021/03/27 05:28:13;;;;;;;0.40;0.40;;;7.50;1.00;;;;;;4954385;29;20468;-75
2021/03/27 05:34:41;;;;;;;0.93;0.50;;;7.50;1.00;;;;;;4954343;29;20553;-75
2021/03/27 05:37:40;;;;;;;0.40;0.40;;;7.60;1.00;;;;;;4916232;29;20979;-75
2021/03/27 05:40:45;;;;;;;0.63;0.40;;;7.60;1.00;;;;;;4916332;29;20421;-76
2021/03/27 05:43:45;;;;;;;0.83;0.50;;;7.60;1.00;;;;;;4907832;29;20857;-76
2021/03/27 05:46:40;;;;;;;0.40;0.30;;;7.70;1.00;;;;;;4916541;29;20427;-76
2021/03/27 05:49:31;;;;;;;0.40;0.40;;;7.80;1.00;;;;;;4916370;29;20424;-75
2021/03/27 05:52:26;;;;;;;0.50;0.40;;;7.80;1.00;;;;;;4916446;29;20507;-76
2021/03/27 05:55:26;;;;;;;0.40;0.40;;;7.80;1.00;;;;;;4916340;29;20440;-76
2021/03/27 05:58:13;;;;;;;0.50;0.40;;;7.90;1.00;;;;;;4916573;29;20397;-75
2021/03/27 06:00:44;;;;;;;0.37;0.37;;;7.90;1.00;;;;;;4932259;29;20467;-76
2021/03/27 06:03:25;;;;;;;1.13;0.40;;;7.80;1.00;;;;;;4935465;29;20875;-76
2021/03/27 06:06:27;;;;;;;0.40;0.40;;;7.90;1.00;;;;;;4934244;29;20431;-80
2021/03/27 06:09:37;;;;;;;0.50;0.40;;;8.00;1.00;;;;;;4934730;29;20423;-80
2021/03/27 06:12:37;;;;;;;0.40;0.37;;;;;;;;;;4935213;29;20994;-84
2021/03/27 06:15:23;;;;;;;0.40;0.40;;;8.00;1.00;;;;;;4990240;28;20428;-85
2021/03/27 06:18:27;;;;;;;2.63;0.70;;;8.00;1.00;;;;;;4993173;28;20547;-83
2021/03/27 06:21:34;;;;;;;0.40;0.40;;;7.90;1.00;;;;;;5068790;28;20417;-84
2021/03/27 06:24:37;;;;;;;4.17;1.00;;;7.90;1.00;;;;;;5068040;28;20428;-75
2021/03/27 06:27:28;;;;;;;0.40;0.37;;;7.80;1.00;;;;;;5077268;28;20468;-75
2021/03/27 06:30:30;;;;;;;2.60;0.70;;;7.80;1.00;;;;;;5081309;28;20413;-75
2021/03/27 06:33:37;;;;;;;1.03;0.60;;;7.90;1.00;;;;;;4974274;28;20473;-76
2021/03/27 06:36:20;;;;;;;2.50;0.77;;;7.90;1.00;;;;;;4981325;28;20599;-75
2021/03/27 06:39:14;;;;;;;1.40;0.60;;;7.90;1.00;;;;;;4974001;28;20464;-75
2021/03/27 06:41:58;;;;;;;0.97;0.50;;;8.10;1.00;;;;;;4992264;28;20970;-75
2021/03/27 06:44:55;;;;;;;0.80;0.47;;;8.20;1.00;;;;;;4992618;28;20868;-75
2021/03/27 06:47:35;;;;;;;0.97;0.47;;;8.40;1.00;;;;;;4987883;28;20541;-75
2021/03/27 06:50:21;;;;;;;0.40;0.40;;;8.40;1.00;;;;;;4982565;28;20436;-75
2021/03/27 06:53:08;;;;;;;1.10;0.40;;;8.40;1.00;;;;;;4992490;28;21033;-75
2021/03/27 06:55:49;;;;;;;1.73;0.70;;;8.40;1.00;;;;;;4992241;28;20432;-75
2021/03/27 06:59:04;;;;;;;1.23;0.60;;;8.30;1.00;;;;;;4973474;28;20420;-75
2021/03/27 07:02:04;;;;;;;6.53;1.10;;;8.30;1.00;;;;;;4972754;28;20434;-74
2021/03/27 07:05:21;;;;;;;0.67;0.60;;;8.30;1.00;;;;;;4977758;28;20428;-75
2021/03/27 07:08:24;;;;;;;2.70;0.60;;;8.30;1.00;;;;;;4966204;28;20430;-75
2021/03/27 07:11:13;;;;;;;1.47;0.50;;;8.30;1.00;;;;;;5051868;28;20418;-74
2021/03/27 07:14:16;;;;;;;1.37;0.60;;;8.40;1.00;;;;;;5032233;28;20940;-78
2021/03/27 07:17:19;;;;;;;0.77;0.60;;;8.40;1.00;;;;;;5031795;28;20927;-76
2021/03/27 07:20:25;;;;;;;2.80;0.70;;;8.40;1.00;;;;;;5031475;28;20933;-79
2021/03/27 07:23:34;;;;;;;0.70;0.70;;;8.50;1.00;;;;;;5031157;28;20776;-79
2021/03/27 07:26:28;;;;;;;0.50;0.50;;;8.60;1.00;;;;;;5031295;28;20509;-78
2021/03/27 07:29:08;;;;;;;1.00;0.50;;;;;;;;;;4986727;28;20429;-77
2021/03/27 07:31:56;;;;;;;1.00;0.50;;;8.90;1.00;;;;;;4997383;28;20453;-75
2021/03/27 07:34:47;;;;;;;0.97;0.90;;;9.10;1.00;;;;;;5004699;28;20580;-75
2021/03/27 07:37:44;;;;;;;2.23;0.60;;;9.10;1.00;;;;;;4993183;28;20449;-75
2021/03/27 07:40:13;;;;;;;5.70;0.60;;;9.20;1.00;;;;;;4992315;28;20420;-75
2021/03/27 07:42:52;;;;;;;2.73;0.73;;;9.10;1.00;;;;;;4995331;28;20938;-75
2021/03/27 07:45:40;;;;;;;1.10;0.63;;;9.00;1.00;;;;;;5029828;28;20461;-77
2021/03/27 07:48:07;;;;;;;1.43;0.90;;;9.00;1.00;;;;;;5051019;28;20793;-77
2021/03/27 07:50:54;;;;;;;2.80;0.60;;;9.00;1.00;;;;;;5042214;28;20454;-75
2021/03/27 07:53:28;;;;;;;1.57;0.87;;;9.00;1.00;;;;;;5030750;28;20509;-75
2021/03/27 07:56:19;;;;;;;3.10;0.63;;;9.00;1.00;;;;;;5031751;28;20454;-75
2021/03/27 07:59:14;;;;;;;0.90;0.60;;;9.00;1.00;;;;;;5011601;28;20408;-79
2021/03/27 08:02:01;;;;;;;4.00;0.80;;;9.10;1.00;;;;;;5024659;28;20430;-75
2021/03/27 08:04:51;;;;;;;1.90;0.70;;;9.30;1.00;;;;;;5030783;28;20422;-76
2021/03/27 08:07:22;;;;;;;1.87;0.73;;;9.30;1.00;;;;;;5094515;28;20420;-76
2021/03/27 08:10:14;;;;;;;2.20;0.77;;;9.40;1.00;;;;;;5090049;28;20994;-75
2021/03/27 08:16:07;;;;;;;2.40;0.77;;;9.40;1.00;;;;;;5056203;28;20481;-81
2021/03/27 08:18:56;;;;;;;2.57;0.63;;;9.40;1.00;;;;;;5061497;28;20425;-80
2021/03/27 08:21:55;;;;;;;0.63;0.63;;;9.40;1.00;;;;;;5056577;28;20786;-76
2021/03/27 08:24:46;;;;;;;2.93;1.00;;;9.40;1.00;;;;;;5055985;28;20468;-75
2021/03/27 08:27:48;;;;;;;0.50;0.50;;;9.40;1.00;;;;;;5056864;28;20405;-76
2021/03/27 08:30:37;;;;;;;3.77;1.00;;;9.30;1.00;;;;;;5060410;28;20418;-74
2021/03/27 08:33:49;;;;;;;8.43;1.20;;;9.30;1.00;;;;;;5056054;28;20473;-75
2021/03/27 08:36:50;;;;;;;2.30;0.80;;;9.30;1.00;;;;;;5056005;28;20426;-76
2021/03/27 08:39:44;;;;;;;10.03;1.10;;;9.40;1.00;;;;;;5067419;28;20444;-76
2021/03/27 08:42:37;;;;;;;1.33;0.67;;;9.40;1.00;;;;;;5074629;28;20505;-75
2021/03/27 08:45:03;;;;;;;1.63;0.83;;;;;;;;;;5076149;28;20389;-76
2021/03/27 08:47:43;;;;;;;1.87;1.00;;;9.70;1.00;;;;;;5076005;28;20985;-76
2021/03/27 08:50:40;;;;;;;2.50;0.90;;;9.80;1.00;;;;;;5070582;28;20475;-76
2021/03/27 08:53:15;;;;;;;3.53;0.77;;;;;;;;;;5023350;28;20466;-76
2021/03/27 08:56:01;;;;;;;8.63;1.20;;;10.10;1.00;;;;;;5034287;28;20411;-76
2021/03/27 08:58:49;;;;;;;3.60;0.60;;;10.00;1.00;;;;;;5033226;28;20438;-76
2021/03/27 09:01:43;;;;;;;3.57;0.63;;;9.90;1.00;;;;;;5031879;28;20954;-76
2021/03/27 09:04:54;;;;;;;2.87;0.70;;;10.00;1.00;;;;;;5033432;28;20423;-75
2021/03/27 09:07:44;;;;;;;0.60;0.60;;;10.10;1.00;;;;;;4993842;28;20432;-77
2021/03/27 09:10:30;;;;;;;7.63;0.80;;;10.10;1.00;;;;;;4994202;28;20429;-76
2021/03/27 09:13:10;;;;;;;0.70;0.50;;;10.10;1.00;;;;;;4979338;28;20555;-75
2021/03/27 09:16:22;;;;;;;1.17;0.60;;;9.90;1.00;;;;;;4974592;28;20430;-78
2021/03/27 09:19:29;;;;;;;1.23;0.90;;;9.80;1.00;;;;;;4978593;28;20419;-75
2021/03/27 09:22:29;;;;;;;4.10;0.80;;;9.80;1.00;;;;;;4885101;29;20434;-75
2021/03/27 09:25:16;;;;;;;0.80;0.50;;;9.70;1.00;;;;;;4898134;29;20769;-75
2021/03/27 09:31:08;;;;;;;1.20;0.90;;;;;;;;;;4959061;28;20438;-74
2021/03/27 09:33:49;;;;;;;2.00;0.97;;;9.60;1.00;;;;;;4973967;28;20456;-75
2021/03/27 09:36:31;;;;;;;1.33;0.70;;;9.70;1.00;;;;;;4973895;28;20461;-75
2021/03/27 09:39:25;;;;;;;8.10;1.10;;;9.70;1.00;;;;;;4949827;29;20462;-75
2021/03/27 09:42:41;;;;;;;4.07;0.77;;;9.70;1.00;;;;;;4974315;28;20424;-74
2021/03/27 09:45:29;;;;;;;1.73;0.70;;;9.70;1.00;;;;;;4935419;29;20942;-75
2021/03/27 09:48:13;;;;;;;2.97;0.60;;;9.80;1.00;;;;;;4935517;29;20861;-75
2021/03/27 09:51:01;;;;;;;1.23;0.57;;;9.90;1.00;;;;;;4935193;29;20441;-76
2021/03/27 09:53:34;;;;;;;2.00;0.60;;;10.00;1.00;;;;;;4935232;29;20600;-72
2021/03/27 09:56:13;;;;;;;6.57;1.00;;;9.90;1.00;;;;;;4935578;29;20423;-75
2021/03/27 10:02:37;;;;;;;0.60;0.50;;;10.10;1.00;;;;;;4992703;28;20420;-79
2021/03/27 10:05:37;;;;;;;1.87;0.70;;;10.20;1.00;;;;;;4992882;28;20408;-79
2021/03/27 10:08:51;;;;;;;0.80;0.50;;;10.30;1.00;;;;;;4992918;28;20420;-79
2021/03/27 10:11:21;;;;;;;1.90;0.60;;;10.40;1.00;;;;;;4954388;29;20529;-73
2021/03/27 10:14:13;;;;;;;1.17;0.60;;;10.40;1.00;;;;;;4954040;29;20476;-76
2021/03/27 10:17:15;;;;;;;0.87;0.60;;;10.10;1.00;;;;;;4964045;28;20426;-76
2021/03/27 10:20:09;;;;;;;1.53;0.67;;;9.90;1.00;;;;;;4970902;28;20425;-77
2021/03/27 10:23:01;;;;;;;0.70;0.57;;;9.70;1.00;;;;;;4988661;28;20424;-76
2021/03/27 10:25:27;;;;;;;2.83;0.80;;;;;;;;;;5012153;28;20459;-76
2021/03/27 10:28:04;;;;;;;1.07;0.83;;;9.60;1.00;;;;;;4998958;28;20433;-74
2021/03/27 10:31:00;;;;;;;3.60;0.77;;;9.60;1.00;;;;;;4975429;28;20521;-74
2021/03/27 10:33:40;;;;;;;3.07;1.10;;;9.60;1.00;;;;;;4989620;28;22348;-74
2021/03/27 10:36:43;;;;;;;2.20;1.07;;;9.70;1.00;;;;;;4973357;28;20436;-74
2021/03/27 10:39:09;;;;;;;3.53;1.30;;;;;;;;;;4986134;28;20438;-74
2021/03/27 10:42:08;;;;;;;0.70;0.70;;;9.80;1.00;;;;;;4980897;28;20448;-76
2021/03/27 10:45:11;;;;;;;1.13;0.80;;;10.00;1.00;;;;;;4972975;28;20472;-77
2021/03/27 10:48:00;;;;;;;2.67;0.90;;;10.10;1.00;;;;;;4995102;28;20430;-76
2021/03/27 10:51:15;;;;;;;1.47;0.80;;;10.30;1.00;;;;;;4973183;28;20453;-76
2021/03/27 10:54:02;;;;;;;1.53;0.73;;;10.30;1.00;;;;;;4915211;29;20483;-75
2021/03/27 10:56:38;;;;;;;1.87;0.60;;;;;;;;;;4924273;29;20451;-74
2021/03/27 11:02:47;;;;;;;1.43;0.83;;;10.80;1.00;;;;;;4934360;29;20476;-74
2021/03/27 11:05:15;;;;;;;2.73;1.07;;;11.20;1.00;;;;;;4923126;29;20491;-74
2021/03/27 11:07:58;;;;;;;6.80;0.90;;;11.30;1.00;;;;;;4928329;29;20428;-74
2021/03/27 11:10:36;;;;;;;1.03;0.77;;;11.20;1.00;;;;;;4943211;29;20444;-74
2021/03/27 11:13:29;;;;;;;0.47;0.40;;;11.10;1.00;;;;;;4953465;29;20464;-74
2021/03/27 11:16:13;;;;;;;9.27;1.17;;;11.00;1.00;;;;;;4953519;29;20411;-74
2021/03/27 11:18:57;;;;;;;1.53;0.70;;;11.30;1.00;;;;;;4953493;29;20439;-75
2021/03/27 11:21:37;;;;;;;2.50;0.77;;;11.60;1.00;;;;;;4953298;29;20427;-74
2021/03/27 11:24:30;;;;;;;0.77;0.50;;;11.80;1.00;;;;;;4953209;29;20418;-75
2021/03/27 11:27:10;;;;;;;3.03;0.50;;;11.80;1.00;;;;;;4967021;28;20903;-75
2021/03/27 11:29:54;;;;;;;2.23;0.77;;;11.90;1.00;;;;;;5028848;28;20486;-74
2021/03/27 11:32:54;;;;;;;2.73;0.70;;;11.70;1.00;;;;;;5053474;28;20398;-73
2021/03/27 11:35:24;;;;;;;3.20;0.97;;;11.50;1.00;;;;;;5053493;28;20466;-74
2021/03/27 11:38:19;;;;;;;5.00;0.87;;;11.60;1.00;;;;;;5053279;28;20493;-74
2021/03/27 11:41:12;;;;;;;7.37;1.83;;;11.50;1.00;;;;;;5058973;28;20522;-74
2021/03/27 11:44:20;;;;;;;3.30;1.27;;;11.50;1.00;;;;;;5059522;28;20827;-77
2021/03/27 11:47:12;;;;;;;2.20;1.03;;;11.50;1.00;;;;;;5057348;28;20386;-77
2021/03/27 11:50:16;;;;;;;3.47;0.63;;;11.40;1.00;;;;;;5061363;28;20406;-77
2021/03/27 11:53:10;;;;;;;2.43;0.60;;;11.40;1.00;;;;;;5014957;28;20765;-80
2021/03/27 11:55:47;;;;;;;3.47;0.83;;;11.10;1.00;;;;;;5056317;28;20616;-77
2021/03/27 12:01:39;;;;;;;0.80;0.50;;;10.80;1.00;;;;;;5076806;28;20414;-80
2021/03/27 12:04:31;;;;;;;1.10;0.80;;;10.80;1.00;;;;;;5076746;28;20405;-78
2021/03/27 12:07:12;;;;;;;0.80;0.50;;;10.80;1.00;;;;;;5075435;28;20496;-78
2021/03/27 12:09:57;;;;;;;1.43;0.50;;;10.90;1.00;;;;;;5076908;28;20906;-76
2021/03/27 12:12:51;;;;;;;0.80;0.67;;;11.00;1.00;;;;;;5077058;28;20822;-74
2021/03/27 12:15:54;;;;;;;0.60;0.60;;;11.00;1.00;;;;;;5076640;28;20401;-74
2021/03/27 12:18:47;;;;;;;1.00;0.50;;;11.10;1.00;;;;;;5056349;28;20368;-74
2021/03/27 12:21:31;;;;;;;2.80;0.90;;;11.20;1.00;;;;;;5056212;28;20736;-74
2021/03/27 12:24:14;;;;;;;1.33;0.73;;;11.20;1.00;;;;;;5054979;28;20482;-74
2021/03/27 12:27:24;;;;;;;4.60;0.90;;;11.20;1.00;;;;;;5074331;28;20425;-74
2021/03/27 12:30:01;;;;;;;3.80;0.70;;;11.10;1.00;;;;;;5071502;28;20409;-74
2021/03/27 12:32:34;;;;;;;6.40;1.10;;;11.10;1.00;;;;;;5055200;28;20414;-74
2021/03/27 12:35:21;;;;;;;2.50;0.70;;;11.30;1.00;;;;;;5033585;28;20583;-74
2021/03/27 12:38:05;;;;;;;3.80;0.63;;;11.40;1.00;;;;;;5033875;28;20461;-74
2021/03/27 12:40:34;;;;;;;1.70;0.90;;;11.70;1.00;;;;;;5033819;28;20418;-74
2021/03/27 12:43:10;;;;;;;2.43;0.70;;;11.60;1.00;;;;;;5052507;28;20529;-74
2021/03/27 12:45:59;;;;;;;5.60;0.97;;;11.70;1.00;;;;;;5053731;28;20540;-74
2021/03/27 12:48:36;;;;;;;2.07;0.73;;;12.00;1.00;;;;;;5062489;28;20761;-74
2021/03/27 12:51:10;;;;;;;0.90;0.60;;;12.00;1.00;;;;;;5033911;28;20472;-73
2021/03/27 12:53:51;;;;;;;4.83;0.80;;;12.20;1.00;;;;;;5034628;28;20956;-74
2021/03/27 12:56:47;;;;;;;4.00;1.00;;;12.50;1.00;;;;;;5042084;28;20418;-74
2021/03/27 12:59:16;;;;;;;0.80;0.67;;;12.60;1.00;;;;;;5053898;28;20407;-74
2021/03/27 13:02:14;;;;;;;2.20;0.80;;;12.80;1.00;;;;;;5053577;28;20398;-74
2021/03/27 13:05:05;;;;;;;1.30;0.77;;;12.60;1.00;;;;;;5050037;28;20556;-74
2021/03/27 13:07:37;;;;;;;2.13;0.93;;;;;;;;;;5059505;28;20417;-74
2021/03/27 13:10:08;;;;;;;6.00;0.80;;;;;;;;;;5075585;28;20903;-74
2021/03/27 13:13:10;;;;;;;2.50;0.70;;;11.80;1.00;;;;;;5075503;28;20390;-74
2021/03/27 13:16:01;;;;;;;2.30;0.63;;;12.00;1.00;;;;;;5075473;28;20456;-76
2021/03/27 13:18:58;;;;;;;5.00;0.90;;;12.10;1.00;;;;;;5075610;28;20437;-76
2021/03/27 13:21:55;;;;;;;0.70;0.70;;;12.20;1.00;;;;;;5055236;28;20402;-77
2021/03/27 13:25:01;;;;;;;2.00;0.60;;;12.60;1.00;;;;;;5055364;28;20406;-77
2021/03/27 13:27:55;;;;;;;2.50;0.60;;;12.40;1.00;;;;;;5061538;28;20405;-76
2021/03/27 13:30:35;;;;;;;2.77;0.80;;;12.10;1.00;;;;;;5074899;28;20907;-74
2021/03/27 13:33:11;;;;;;;4.77;0.80;;;11.70;1.00;;;;;;5074947;28;20805;-74
2021/03/27 13:35:59;;;;;;;1.47;0.67;;;11.40;1.00;;;;;;5075145;28;20428;-74
2021/03/27 13:38:38;;;;;;;1.00;0.80;;;;;;;;;;5068627;28;20811;-74
2021/03/27 13:41:23;;;;;;;2.80;0.70;;;11.20;1.00;;;;;;5070380;28;20464;-74
2021/03/27 13:44:05;;;;;;;2.60;0.97;;;11.30;1.00;;;;;;5067774;28;20429;-75
2021/03/27 13:46:47;;;;;;;4.93;1.10;;;11.00;1.00;;;;;;5074845;28;20424;-76
2021/03/27 13:49:22;;;;;;;1.20;0.80;;;10.30;1.00;;;;;;5070339;28;20422;-77
2021/03/27 13:52:29;;;;;;;0.70;0.70;;;9.90;1.00;;;;;;5070621;28;20429;-82
2021/03/27 13:55:39;;;;;;;0.80;0.67;;;9.50;1.00;;;;;;5073549;28;21014;-76
2021/03/27 13:58:20;;;;;;;1.30;0.90;;;;;;;;;;5012571;28;20436;-75
2021/03/27 14:01:26;;;;;;;4.67;1.33;;;8.90;1.00;;;;;;5012563;28;20420;-75
2021/03/27 14:04:04;;;;;;;1.27;0.80;;;;;;;;;;5006183;28;20435;-75
2021/03/27 14:06:52;;;;;;;1.77;1.00;;;8.40;1.00;;;;;;5005268;28;20511;-75
2021/03/27 14:09:34;;;;;;;4.07;0.87;;;8.30;1.00;;;;;;5012656;28;20478;-74
2021/03/27 14:12:34;;;;;;;0.90;0.70;;;8.20;1.00;;;;;;4999867;28;20432;-74
2021/03/27 14:15:06;;;;;;;3.93;0.90;;;8.20;1.00;;;;;;5001535;28;20495;-75
2021/03/27 14:17:43;;;;;;;1.40;0.63;;;8.00;1.00;;;;;;4992780;28;20405;-73
2021/03/27 14:20:34;;;;;;;1.00;0.50;;;8.10;1.00;;;;;;4992671;28;20401;-73
2021/03/27 14:23:35;;;;;;;1.73;0.60;;;8.00;1.00;;;;;;4992600;28;20432;-73
2021/03/27 14:26:16;;;;;;;0.70;0.70;;;;;;;;;;4933756;29;20493;-74
2021/03/27 14:29:07;;;;;;;1.63;0.80;;;7.90;1.00;;;;;;4934963;29;20418;-74
2021/03/27 14:31:35;;;;;;;1.63;0.60;;;7.90;1.00;;;;;;4934275;29;20427;-76
2021/03/27 14:34:23;;;;;;;4.20;0.90;;;8.30;1.00;;;;;;4943779;28;20465;-76
2021/03/27 14:37:31;;;;;;;3.80;0.90;;;8.50;1.00;;;;;;4974109;28;20428;-78
2021/03/27 14:40:37;;;;;;;3.07;0.80;;;8.70;1.00;;;;;;4992437;28;20393;-76
2021/03/27 14:47:07;;;;;;;2.77;0.70;;;8.80;1.00;;;;;;4988734;28;20429;-76
2021/03/27 14:53:13;;;;;;;1.80;0.70;;;9.10;1.00;;;;;;4991900;28;20408;-76
2021/03/27 14:58:57;;;;;;;1.90;0.80;;;;;;;;;;4992252;28;20483;-77
2021/03/27 15:01:24;;;;;;;1.67;0.60;;;9.40;1.00;;;;;;4992317;28;20417;-75
2021/03/27 15:04:02;;;;;;;3.87;0.77;;;9.70;1.00;;;;;;5060260;28;20456;-77
2021/03/27 15:13:49;;;;;;;1.43;0.60;;;9.80;1.00;;;;;;5093345;28;20470;-77
2021/03/27 15:16:40;;;;;;;1.47;0.70;;;9.60;1.00;;;;;;5090549;28;20462;-78
2021/03/27 15:19:47;;;;;;;1.83;0.67;;;9.70;1.00;;;;;;5076327;28;20409;-77
2021/03/27 15:22:40;;;;;;;1.13;0.60;;;10.50;1.00;;;;;;5015872;28;20816;-76
2021/03/27 15:28:23;;;;;;;1.13;0.70;;;12.90;1.00;;;;;;5016949;28;20465;-75
2021/03/27 15:31:01;;;;;;;0.60;0.60;;;13.50;1.00;;;;;;5019696;28;20907;-74
2021/03/27 15:34:07;;;;;;;2.70;0.87;;;14.10;1.00;;;;;;5025425;28;20430;-74
2021/03/27 15:37:09;;;;;;;0.70;0.70;;;14.50;1.00;;;;;;5014950;28;20435;-75
2021/03/27 15:39:47;;;;;;;0.50;0.40;;;14.10;1.00;;;;;;5015295;28;20428;-74
2021/03/27 15:42:37;;;;;;;0.70;0.60;;;14.60;1.00;;;;;;5007161;28;20427;-73
2021/03/27 15:45:37;;;;;;;2.20;0.97;;;15.20;1.00;;;;;;5012419;28;20425;-73
2021/03/27 15:48:11;;;;;;;0.97;0.50;;;15.20;1.00;;;;;;5015031;28;20401;-73
2021/03/27 15:51:25;;;;;;;1.30;0.73;;;15.70;1.00;;;;;;5015148;28;20430;-75